Time;durP1;ratioP1;P1;durP2;ratioP2;P2;SDS_P1;SDS_P2;PMS_P1;PMS_P2;Temp;Humidity;BMP_temperature;BMP_pressure;BME280_temperature;BME280_humidity;BME280_pressure;Samples;Min_cycle;Max_cycle;Signal;HPM_P1;HPM_P2
2021/09/12 00:02:23;;;;;;;44.67;41.67;;;17.90;99.90;;;;;;4407372;32;20531;-64
2021/09/12 00:04:50;;;;;;;39.60;36.67;;;17.90;99.90;;;;;;4406584;32;20198;-65
2021/09/12 00:07:16;;;;;;;39.73;37.37;;;17.90;99.90;;;;;;4395782;32;20184;-68
2021/09/12 00:09:43;;;;;;;40.80;37.97;;;17.80;99.90;;;;;;4390889;32;20210;-65
2021/09/12 00:12:10;;;;;;;41.70;38.90;;;17.80;99.90;;;;;;4391130;32;20171;-65
2021/09/12 00:14:37;;;;;;;36.90;34.43;;;17.80;99.90;;;;;;4390904;32;20156;-65
2021/09/12 00:17:04;;;;;;;43.87;41.00;;;17.80;99.90;;;;;;4391583;32;20198;-67
2021/09/12 00:19:33;;;;;;;37.23;35.00;;;17.70;99.90;;;;;;4390908;32;20152;-65
2021/09/12 00:22:00;;;;;;;37.23;35.03;;;17.70;99.90;;;;;;4404881;32;20175;-66
2021/09/12 00:24:27;;;;;;;41.57;38.60;;;17.70;99.90;;;;;;4406348;32;20614;-67
2021/09/12 00:26:54;;;;;;;35.47;32.97;;;17.70;99.90;;;;;;4392357;32;20197;-64
2021/09/12 00:29:21;;;;;;;35.77;33.77;;;17.60;99.90;;;;;;4390856;32;20500;-64
2021/09/12 00:31:48;;;;;;;35.43;33.33;;;17.60;99.90;;;;;;4392320;32;20160;-65
2021/09/12 00:34:14;;;;;;;36.30;33.30;;;17.60;99.90;;;;;;4390733;32;20194;-65
2021/09/12 00:36:44;;;;;;;38.13;35.43;;;17.60;99.90;;;;;;4391773;32;20178;-65
2021/09/12 00:39:10;;;;;;;37.57;35.30;;;17.50;99.90;;;;;;4390702;32;20195;-65
2021/09/12 00:41:38;;;;;;;36.07;33.53;;;17.50;99.90;;;;;;4392991;32;20172;-66
2021/09/12 00:44:09;;;;;;;36.93;34.73;;;17.50;99.90;;;;;;4395021;32;20175;-67
2021/09/12 00:46:39;;;;;;;34.70;32.47;;;17.50;99.90;;;;;;4405760;32;20429;-65
2021/09/12 00:49:06;;;;;;;35.30;33.10;;;17.40;99.90;;;;;;4405047;32;20212;-66
2021/09/12 00:51:32;;;;;;;34.53;32.37;;;17.40;99.90;;;;;;4406517;32;20555;-67
2021/09/12 00:54:02;;;;;;;33.90;31.80;;;17.30;99.90;;;;;;4406630;32;20166;-65
2021/09/12 00:56:30;;;;;;;36.80;34.70;;;17.20;99.90;;;;;;4407497;32;20199;-66
2021/09/12 00:58:59;;;;;;;34.07;31.97;;;17.20;99.90;;;;;;4404438;32;20172;-66
2021/09/12 01:01:27;;;;;;;31.53;29.37;;;17.10;99.90;;;;;;4405682;32;20513;-65
2021/09/12 01:03:53;;;;;;;35.10;32.50;;;17.10;99.90;;;;;;4405071;32;20191;-66
2021/09/12 01:06:20;;;;;;;33.93;31.13;;;17.10;99.90;;;;;;4406631;32;20235;-64
2021/09/12 01:08:47;;;;;;;30.30;28.37;;;17.10;99.90;;;;;;4404530;32;20175;-64
2021/09/12 01:11:15;;;;;;;37.43;34.20;;;17.10;99.90;;;;;;4391621;32;20487;-64
2021/09/12 01:13:43;;;;;;;32.17;29.73;;;17.00;99.90;;;;;;4391075;32;20151;-65
2021/09/12 01:16:12;;;;;;;30.47;28.37;;;17.00;99.90;;;;;;4390242;32;20172;-64
2021/09/12 01:18:39;;;;;;;28.37;26.30;;;16.90;99.90;;;;;;4390559;32;20152;-64
2021/09/12 01:21:06;;;;;;;27.97;25.83;;;16.80;99.90;;;;;;4403643;32;20168;-65
2021/09/12 01:23:33;;;;;;;30.40;28.30;;;16.70;99.90;;;;;;4394939;32;20191;-64
2021/09/12 01:26:01;;;;;;;30.87;28.63;;;16.70;99.90;;;;;;4390630;32;20218;-64
2021/09/12 01:28:28;;;;;;;29.27;26.90;;;16.70;99.90;;;;;;4400079;32;20190;-68
2021/09/12 01:30:55;;;;;;;28.57;26.53;;;16.60;99.90;;;;;;4405543;32;20148;-65
2021/09/12 01:33:22;;;;;;;32.90;30.70;;;16.60;99.90;;;;;;4404252;32;20202;-66
2021/09/12 01:35:49;;;;;;;32.10;29.90;;;16.50;99.90;;;;;;4405449;32;20512;-65
2021/09/12 01:38:16;;;;;;;30.00;27.93;;;16.50;99.90;;;;;;4405135;32;20215;-64
2021/09/12 01:40:43;;;;;;;29.10;27.27;;;16.40;99.90;;;;;;4407196;32;20198;-64
2021/09/12 01:43:11;;;;;;;27.90;25.63;;;16.40;99.90;;;;;;4406363;32;20178;-66
2021/09/12 01:45:38;;;;;;;27.87;26.07;;;16.40;99.90;;;;;;4405069;32;20170;-64
2021/09/12 01:48:05;;;;;;;28.33;26.23;;;16.30;99.90;;;;;;4400375;32;20179;-64
2021/09/12 01:50:33;;;;;;;24.50;22.63;;;16.20;99.90;;;;;;4390355;32;20148;-65
2021/09/12 01:53:00;;;;;;;27.47;25.77;;;16.20;99.90;;;;;;4394460;32;20534;-67
2021/09/12 01:55:27;;;;;;;23.20;21.40;;;16.10;99.90;;;;;;4405392;32;20167;-65
2021/09/12 01:57:54;;;;;;;28.60;26.47;;;16.10;99.90;;;;;;4404830;32;20260;-65
2021/09/12 02:00:22;;;;;;;26.37;24.27;;;16.00;99.90;;;;;;4393307;32;20164;-64
2021/09/12 02:02:49;;;;;;;24.13;22.30;;;16.00;99.90;;;;;;4404543;32;20621;-65
2021/09/12 02:05:15;;;;;;;21.97;20.43;;;16.00;99.90;;;;;;4405023;32;20163;-64
2021/09/12 02:07:42;;;;;;;23.57;21.17;;;15.90;99.90;;;;;;4403535;32;20618;-65
2021/09/12 02:10:10;;;;;;;22.90;21.10;;;15.80;99.90;;;;;;4390146;32;20168;-64
2021/09/12 02:12:37;;;;;;;25.13;23.13;;;15.80;99.90;;;;;;4390270;32;20174;-66
2021/09/12 02:15:05;;;;;;;22.97;21.10;;;15.80;99.90;;;;;;4390409;32;20179;-65
2021/09/12 02:17:33;;;;;;;24.23;22.30;;;15.80;99.90;;;;;;4389929;32;20167;-64
2021/09/12 02:20:00;;;;;;;21.60;20.00;;;15.70;99.90;;;;;;4389709;32;20215;-65
2021/09/12 02:22:27;;;;;;;24.77;22.77;;;15.70;99.90;;;;;;4404250;32;20163;-65
2021/09/12 02:24:53;;;;;;;22.30;20.47;;;15.60;99.90;;;;;;4409143;32;20485;-67
2021/09/12 02:27:20;;;;;;;21.00;19.43;;;15.60;99.90;;;;;;4406525;32;20207;-65
2021/09/12 02:29:47;;;;;;;24.03;22.07;;;15.50;99.90;;;;;;4407643;32;20611;-64
2021/09/12 02:32:14;;;;;;;22.57;19.53;;;15.40;99.90;;;;;;4407615;32;20202;-65
2021/09/12 02:34:42;;;;;;;21.47;19.63;;;15.40;99.90;;;;;;4407690;32;20181;-65
2021/09/12 02:37:09;;;;;;;22.20;20.60;;;15.40;99.90;;;;;;4406033;32;20623;-67
2021/09/12 02:39:36;;;;;;;21.20;19.37;;;15.40;99.90;;;;;;4407405;32;20175;-65
2021/09/12 02:42:03;;;;;;;22.53;20.33;;;15.40;99.90;;;;;;4398673;32;20156;-65
2021/09/12 02:44:30;;;;;;;22.50;20.80;;;15.30;99.90;;;;;;4392474;32;20211;-64
2021/09/12 02:46:57;;;;;;;23.20;20.60;;;15.30;99.90;;;;;;4392916;32;20182;-65
2021/09/12 02:49:23;;;;;;;23.63;21.63;;;15.30;99.90;;;;;;4393902;32;20507;-65
2021/09/12 02:51:51;;;;;;;23.83;21.97;;;15.30;99.90;;;;;;4399796;32;20194;-64
2021/09/12 02:54:18;;;;;;;23.17;21.17;;;15.30;99.90;;;;;;4407345;32;20171;-64
2021/09/12 02:56:45;;;;;;;23.73;21.47;;;15.30;99.90;;;;;;4406063;32;20196;-64
2021/09/12 02:59:12;;;;;;;19.60;17.87;;;15.30;99.90;;;;;;4408157;32;20166;-67
2021/09/12 03:01:39;;;;;;;21.67;19.17;;;15.30;99.90;;;;;;4400696;32;20171;-64
2021/09/12 03:04:06;;;;;;;22.07;20.13;;;15.40;99.90;;;;;;4393112;32;20227;-64
2021/09/12 03:06:33;;;;;;;21.40;19.33;;;15.30;99.90;;;;;;4392210;32;20180;-65
2021/09/12 03:09:01;;;;;;;22.80;20.73;;;15.40;99.90;;;;;;4392359;32;20575;-66
2021/09/12 03:11:28;;;;;;;21.30;19.43;;;15.40;99.90;;;;;;4399383;32;20246;-63
2021/09/12 03:13:55;;;;;;;24.40;21.87;;;15.40;99.90;;;;;;4407332;32;20156;-65
2021/09/12 03:16:21;;;;;;;22.23;20.13;;;15.30;99.90;;;;;;4406770;32;20168;-64
2021/09/12 03:18:48;;;;;;;22.63;20.37;;;15.20;99.90;;;;;;4408622;32;20195;-64
2021/09/12 03:21:15;;;;;;;20.07;18.47;;;15.20;99.90;;;;;;4405887;32;20206;-64
2021/09/12 03:23:42;;;;;;;24.53;22.33;;;15.20;99.90;;;;;;4406924;32;20159;-65
2021/09/12 03:26:10;;;;;;;26.47;24.30;;;15.10;99.90;;;;;;4397611;32;20176;-65
2021/09/12 03:28:37;;;;;;;24.40;21.67;;;15.00;99.90;;;;;;4392224;32;20163;-64
2021/09/12 03:31:05;;;;;;;23.40;21.10;;;15.00;99.90;;;;;;4392471;32;20645;-66
2021/09/12 03:33:32;;;;;;;21.97;19.00;;;15.00;99.90;;;;;;4392721;32;20192;-64
2021/09/12 03:35:59;;;;;;;22.57;20.07;;;15.00;99.90;;;;;;4400311;32;20634;-65
2021/09/12 03:38:26;;;;;;;22.47;18.93;;;15.00;99.90;;;;;;4406689;32;20208;-65
2021/09/12 03:40:53;;;;;;;22.90;20.87;;;15.00;99.90;;;;;;4406234;32;20187;-64
2021/09/12 03:43:21;;;;;;;20.97;18.87;;;15.00;99.90;;;;;;4408265;32;20171;-67
2021/09/12 03:45:47;;;;;;;26.93;20.50;;;15.00;99.90;;;;;;4400851;32;20196;-66
2021/09/12 03:48:14;;;;;;;21.47;19.10;;;15.00;99.90;;;;;;4393026;32;20153;-64
2021/09/12 03:50:41;;;;;;;22.47;19.20;;;15.00;99.90;;;;;;4392403;32;20160;-67
2021/09/12 03:53:08;;;;;;;26.10;20.13;;;14.90;99.90;;;;;;4391175;32;20215;-64
2021/09/12 03:55:35;;;;;;;24.77;19.33;;;14.80;99.90;;;;;;4392030;32;20200;-64
2021/09/12 03:58:02;;;;;;;21.87;18.60;;;14.80;99.90;;;;;;4391275;32;20186;-65
2021/09/12 04:00:30;;;;;;;20.10;17.23;;;14.80;99.90;;;;;;4391777;32;20222;-65
2021/09/12 04:02:57;;;;;;;22.37;19.53;;;14.80;99.90;;;;;;4391488;32;20186;-65
2021/09/12 04:05:24;;;;;;;20.67;18.57;;;14.80;99.90;;;;;;4401848;32;20211;-64
2021/09/12 04:07:51;;;;;;;20.37;18.23;;;14.80;99.90;;;;;;4406325;32;20168;-67
2021/09/12 04:10:18;;;;;;;23.03;17.13;;;14.70;99.90;;;;;;4396756;32;20167;-65
2021/09/12 04:12:45;;;;;;;23.73;19.57;;;14.80;99.90;;;;;;4390955;32;20200;-65
2021/09/12 04:15:12;;;;;;;22.57;17.90;;;14.70;99.90;;;;;;4400401;32;20179;-66
2021/09/12 04:17:40;;;;;;;19.67;17.67;;;14.60;99.90;;;;;;4406671;32;20584;-65
2021/09/12 04:20:08;;;;;;;22.10;18.50;;;14.60;99.90;;;;;;4405659;32;20156;-65
2021/09/12 04:22:35;;;;;;;21.07;18.70;;;14.60;99.90;;;;;;4406165;32;20218;-64
2021/09/12 04:25:02;;;;;;;22.43;17.83;;;14.60;99.90;;;;;;4405742;32;20171;-64
2021/09/12 04:27:29;;;;;;;22.30;18.97;;;14.60;99.90;;;;;;4405913;32;20160;-67
2021/09/12 04:29:56;;;;;;;22.73;18.13;;;14.70;99.90;;;;;;4401095;32;20213;-65
2021/09/12 04:32:23;;;;;;;21.30;19.30;;;14.90;99.90;;;;;;4390935;32;20155;-65
2021/09/12 04:34:51;;;;;;;24.20;17.60;;;15.00;99.90;;;;;;4393542;32;20171;-65
2021/09/12 04:37:25;;;;;;;25.77;18.73;;;15.20;99.90;;;;;;4397482;32;20178;-65
2021/09/12 04:39:55;;;;;;;21.30;19.27;;;15.20;99.90;;;;;;4398391;32;20190;-66
2021/09/12 04:42:22;;;;;;;23.50;19.10;;;15.30;99.90;;;;;;4392372;32;20215;-65
2021/09/12 04:44:51;;;;;;;20.90;18.77;;;15.30;99.90;;;;;;4393136;32;20235;-67
2021/09/12 04:47:17;;;;;;;24.20;20.37;;;15.40;99.90;;;;;;4393912;32;20215;-66
2021/09/12 04:49:52;;;;;;;26.67;19.27;;;15.40;99.90;;;;;;4393264;32;20230;-65
2021/09/12 05:01:00;;;;;;;28.57;20.97;;;15.50;99.90;;;;;;4396899;32;20182;-66
2021/09/12 05:03:31;;;;;;;22.73;20.33;;;15.40;99.90;;;;;;4405784;32;20582;-66
2021/09/12 05:05:58;;;;;;;25.40;22.97;;;15.50;99.90;;;;;;4395517;32;20156;-65
2021/09/12 05:08:37;;;;;;;27.13;21.93;;;15.50;99.90;;;;;;4390624;32;20167;-66
2021/09/12 05:11:04;;;;;;;26.13;23.37;;;15.50;99.90;;;;;;4399249;32;20168;-63
2021/09/12 05:13:31;;;;;;;26.23;22.13;;;15.50;99.90;;;;;;4402691;32;20194;-64
2021/09/12 05:16:01;;;;;;;30.33;23.70;;;15.50;99.90;;;;;;4390267;32;20152;-64
2021/09/12 05:18:31;;;;;;;25.73;23.03;;;15.50;99.90;;;;;;4391185;32;20182;-67
2021/09/12 05:20:59;;;;;;;25.17;22.60;;;15.60;99.90;;;;;;4390509;32;20164;-65
2021/09/12 05:23:27;;;;;;;26.00;23.30;;;15.60;99.90;;;;;;4393126;32;20571;-64
2021/09/12 05:25:54;;;;;;;27.20;23.20;;;15.60;99.90;;;;;;4405366;32;20153;-64
2021/09/12 05:28:23;;;;;;;25.87;20.97;;;15.60;99.90;;;;;;4406120;32;20152;-64
2021/09/12 05:30:50;;;;;;;30.30;24.30;;;15.70;99.90;;;;;;4405281;32;20156;-64
2021/09/12 05:33:18;;;;;;;27.27;24.57;;;15.70;99.90;;;;;;4396567;32;20179;-66
2021/09/12 05:35:45;;;;;;;32.47;25.03;;;15.80;99.90;;;;;;4391321;32;20479;-65
2021/09/12 05:38:12;;;;;;;26.70;24.03;;;15.70;99.90;;;;;;4398784;32;20168;-66
2021/09/12 05:40:51;;;;;;;26.73;23.43;;;15.80;99.90;;;;;;4405361;32;20170;-65
2021/09/12 05:43:19;;;;;;;27.90;25.07;;;15.80;99.90;;;;;;4406018;32;20176;-65
2021/09/12 05:45:59;;;;;;;25.63;22.93;;;15.80;99.90;;;;;;4405385;32;20152;-64
2021/09/12 05:48:34;;;;;;;27.07;24.20;;;15.80;99.90;;;;;;4401906;32;20155;-65
2021/09/12 05:51:07;;;;;;;26.33;23.57;;;15.80;99.90;;;;;;4406717;32;20188;-66
2021/09/12 05:53:38;;;;;;;27.53;24.73;;;15.80;99.90;;;;;;4406246;32;20160;-65
2021/09/12 05:56:06;;;;;;;26.73;21.77;;;15.90;99.90;;;;;;4406064;32;20208;-65
2021/09/12 05:58:36;;;;;;;26.17;23.37;;;15.90;99.90;;;;;;4397750;32;20179;-64
2021/09/12 06:01:03;;;;;;;32.70;26.23;;;15.90;99.90;;;;;;4392147;32;20271;-64
2021/09/12 06:03:33;;;;;;;27.07;23.77;;;15.90;99.90;;;;;;4401874;32;20159;-65
2021/09/12 06:06:00;;;;;;;30.60;26.80;;;16.00;99.90;;;;;;4407558;32;20171;-66
2021/09/12 06:08:27;;;;;;;25.90;23.33;;;16.00;99.90;;;;;;4403661;32;20160;-64
2021/09/12 06:10:54;;;;;;;27.73;24.97;;;16.00;99.90;;;;;;4408204;32;20156;-64
2021/09/12 06:13:25;;;;;;;29.13;24.87;;;16.00;99.90;;;;;;4401387;32;20211;-67
2021/09/12 06:15:58;;;;;;;27.03;24.03;;;16.00;99.90;;;;;;4403979;32;20147;-64
2021/09/12 06:18:36;;;;;;;29.10;25.87;;;16.20;99.90;;;;;;4414275;32;20164;-65
2021/09/12 06:21:09;;;;;;;28.80;26.10;;;16.20;99.90;;;;;;4404719;32;20215;-64
2021/09/12 06:23:39;;;;;;;26.47;23.63;;;16.30;99.90;;;;;;4398083;32;20159;-64
2021/09/12 06:26:11;;;;;;;29.63;25.37;;;16.30;99.90;;;;;;4398237;32;20220;-65
2021/09/12 06:28:39;;;;;;;30.20;27.37;;;16.30;99.90;;;;;;4405493;32;20525;-64
2021/09/12 06:31:15;;;;;;;29.97;26.73;;;16.40;99.90;;;;;;4399276;32;20148;-65
2021/09/12 06:33:42;;;;;;;29.27;26.23;;;16.30;99.90;;;;;;4400335;32;20159;-64
2021/09/12 06:36:13;;;;;;;31.47;28.23;;;16.30;99.90;;;;;;4397733;32;20340;-64
2021/09/12 06:38:42;;;;;;;30.20;26.90;;;16.20;99.90;;;;;;4400336;32;20174;-65
2021/09/12 06:41:09;;;;;;;31.33;28.00;;;16.30;99.90;;;;;;4400859;32;20160;-65
2021/09/12 06:43:38;;;;;;;34.53;27.50;;;16.30;99.90;;;;;;4399427;32;20159;-63
2021/09/12 06:46:07;;;;;;;30.17;27.13;;;16.30;99.90;;;;;;4397532;32;20164;-63
2021/09/12 06:48:34;;;;;;;32.77;29.57;;;16.40;99.90;;;;;;4399767;32;20500;-66
2021/09/12 06:51:06;;;;;;;33.70;30.30;;;16.40;99.90;;;;;;4397868;32;20625;-63
2021/09/12 06:53:37;;;;;;;36.00;32.43;;;16.50;99.90;;;;;;4395082;32;20180;-64
2021/09/12 06:56:08;;;;;;;31.27;28.23;;;16.60;99.90;;;;;;4397065;32;20580;-63
2021/09/12 06:58:42;;;;;;;33.90;29.63;;;16.70;99.90;;;;;;4399070;32;20199;-63
2021/09/12 07:01:09;;;;;;;32.40;29.00;;;16.70;99.90;;;;;;4400883;32;20158;-64
2021/09/12 07:03:36;;;;;;;32.13;28.80;;;16.70;99.90;;;;;;4407463;32;20251;-63
2021/09/12 07:06:04;;;;;;;32.07;28.70;;;16.70;99.90;;;;;;4404666;32;20224;-64
2021/09/12 07:08:34;;;;;;;30.37;27.23;;;16.60;99.90;;;;;;4404309;32;20199;-65
2021/09/12 07:11:12;;;;;;;34.43;31.23;;;16.60;99.90;;;;;;4404351;32;20460;-66
2021/09/12 07:13:42;;;;;;;29.67;26.70;;;16.50;99.90;;;;;;4398201;32;20246;-64
2021/09/12 07:16:12;;;;;;;33.83;30.50;;;16.60;99.90;;;;;;4404844;32;20179;-64
2021/09/12 07:18:41;;;;;;;35.03;31.73;;;16.60;99.90;;;;;;4400469;32;20178;-65
2021/09/12 07:21:08;;;;;;;35.47;31.80;;;16.60;99.90;;;;;;4397561;32;20627;-66
2021/09/12 07:23:35;;;;;;;34.47;31.10;;;16.60;99.90;;;;;;4396377;32;20156;-67
2021/09/12 07:26:04;;;;;;;33.35;30.10;;;16.50;99.90;;;;;;4399103;32;20174;-66
2021/09/12 07:28:34;;;;;;;32.87;29.87;;;16.60;99.90;;;;;;4400896;32;20194;-65
2021/09/12 07:31:03;;;;;;;34.57;31.43;;;16.70;99.90;;;;;;4400683;32;20230;-66
2021/09/12 07:33:35;;;;;;;33.00;29.87;;;16.80;99.90;;;;;;4397137;32;20164;-65
2021/09/12 07:36:02;;;;;;;34.37;31.40;;;17.00;99.90;;;;;;4400509;32;20160;-69
2021/09/12 07:38:33;;;;;;;34.40;30.97;;;17.20;99.90;;;;;;4396043;32;20156;-67
2021/09/12 07:41:09;;;;;;;35.47;31.97;;;17.20;99.90;;;;;;4400564;32;20249;-68
2021/09/12 07:43:38;;;;;;;30.83;28.20;;;17.20;99.90;;;;;;4401777;32;20163;-65
2021/09/12 07:46:05;;;;;;;35.37;31.77;;;17.20;99.90;;;;;;4397489;32;20194;-64
2021/09/12 07:48:32;;;;;;;35.37;32.23;;;17.20;99.90;;;;;;4399863;32;20179;-64
2021/09/12 07:51:20;;;;;;;38.03;34.30;;;17.20;99.90;;;;;;4397886;32;20175;-64
2021/09/12 07:54:03;;;;;;;32.67;29.87;;;17.10;99.90;;;;;;4402869;32;20197;-64
2021/09/12 07:56:35;;;;;;;33.40;30.03;;;17.10;99.90;;;;;;4398284;32;20505;-66
2021/09/12 07:59:09;;;;;;;35.13;32.20;;;17.10;99.90;;;;;;4398660;32;20239;-64
2021/09/12 08:01:36;;;;;;;39.83;35.73;;;17.20;99.90;;;;;;4397107;32;20228;-66
2021/09/12 08:04:03;;;;;;;35.13;32.00;;;17.00;99.90;;;;;;4396580;32;20159;-64
2021/09/12 08:06:30;;;;;;;37.27;33.83;;;17.10;99.90;;;;;;4397790;32;20160;-65
2021/09/12 08:09:00;;;;;;;33.60;30.90;;;17.20;99.90;;;;;;4398296;32;20160;-66
2021/09/12 08:11:42;;;;;;;36.37;32.90;;;17.30;99.90;;;;;;4399367;32;20183;-65
2021/09/12 08:14:21;;;;;;;40.73;37.20;;;17.40;99.90;;;;;;4398443;32;20233;-67
2021/09/12 08:16:57;;;;;;;38.13;34.87;;;17.50;99.90;;;;;;4395644;32;20156;-69
2021/09/12 08:19:29;;;;;;;35.10;32.23;;;17.60;99.90;;;;;;4397725;32;20211;-65
2021/09/12 08:21:59;;;;;;;38.87;35.93;;;17.70;99.90;;;;;;4395697;32;20507;-65
2021/09/12 08:24:26;;;;;;;39.27;36.03;;;17.80;99.90;;;;;;4397698;32;20160;-64
2021/09/12 08:26:59;;;;;;;39.43;36.40;;;17.90;99.90;;;;;;4396153;32;20475;-64
2021/09/12 08:29:30;;;;;;;38.30;35.07;;;18.10;99.90;;;;;;4398788;32;20152;-64
2021/09/12 08:32:01;;;;;;;42.33;37.90;;;18.30;99.90;;;;;;4398055;32;20549;-64
2021/09/12 08:34:32;;;;;;;44.40;40.70;;;18.30;99.90;;;;;;4400902;32;20187;-68
2021/09/12 08:37:01;;;;;;;42.60;39.10;;;18.30;99.90;;;;;;4405997;32;20209;-64
2021/09/12 08:39:33;;;;;;;39.10;35.93;;;18.30;99.90;;;;;;4402150;32;20156;-65
2021/09/12 08:42:08;;;;;;;38.83;35.77;;;18.40;99.90;;;;;;4398368;32;20522;-64
2021/09/12 08:44:40;;;;;;;41.00;36.97;;;18.60;99.90;;;;;;4397753;32;20677;-64
2021/09/12 08:47:17;;;;;;;44.33;40.53;;;18.90;99.90;;;;;;4403370;32;20604;-66
2021/09/12 08:52:34;;;;;;;46.77;42.57;;;19.40;99.90;;;;;;4396075;32;20169;-68
2021/09/12 08:55:06;;;;;;;46.97;43.10;;;19.90;99.90;;;;;;4400501;32;20170;-69
2021/09/12 08:57:37;;;;;;;49.50;45.43;;;20.10;99.90;;;;;;4394139;32;20159;-65
2021/09/12 09:00:15;;;;;;;48.50;43.90;;;20.30;99.90;;;;;;4398534;32;20171;-68
2021/09/12 09:02:47;;;;;;;49.23;43.87;;;20.50;99.90;;;;;;4402800;32;20148;-67
2021/09/12 09:05:14;;;;;;;54.57;49.30;;;21.00;99.90;;;;;;4404512;32;20167;-66
2021/09/12 09:07:47;;;;;;;54.50;49.70;;;21.00;99.90;;;;;;4404202;32;20643;-65
2021/09/12 09:10:22;;;;;;;50.73;46.33;;;20.90;99.90;;;;;;4399208;32;20479;-65
2021/09/12 09:12:58;;;;;;;56.27;50.80;;;20.70;99.90;;;;;;4394252;32;20344;-66
2021/09/12 09:15:41;;;;;;;54.53;49.47;;;20.60;99.90;;;;;;4388677;32;20226;-66
2021/09/12 09:18:13;;;;;;;53.73;48.87;;;20.40;99.90;;;;;;4395504;32;20193;-69
2021/09/12 09:20:40;;;;;;;57.90;52.67;;;20.50;99.90;;;;;;4397202;32;20599;-66
2021/09/12 09:23:08;;;;;;;57.17;52.50;;;20.70;99.90;;;;;;4399840;32;20584;-65
2021/09/12 09:25:40;;;;;;;58.70;54.03;;;20.80;99.90;;;;;;4396390;32;20156;-68
2021/09/12 09:28:09;;;;;;;57.17;52.23;;;21.00;99.90;;;;;;4400197;32;20155;-65
2021/09/12 09:30:57;;;;;;;59.20;54.13;;;21.00;99.90;;;;;;4409987;32;20211;-65
2021/09/12 09:33:32;;;;;;;63.10;57.60;;;21.00;99.90;;;;;;4402438;32;20209;-65
2021/09/12 09:36:06;;;;;;;58.07;53.23;;;21.10;99.90;;;;;;4406772;32;20158;-64
2021/09/12 09:38:38;;;;;;;61.90;56.73;;;21.30;99.90;;;;;;4404059;32;20159;-64
2021/09/12 09:41:18;;;;;;;59.63;54.57;;;21.40;99.90;;;;;;4391124;32;20339;-65
2021/09/12 09:43:47;;;;;;;57.63;52.93;;;21.20;99.90;;;;;;4384153;32;20309;-69
2021/09/12 09:46:31;;;;;;;64.80;59.20;;;21.10;99.90;;;;;;4400861;32;20496;-64
2021/09/12 09:52:13;;;;;;;62.60;57.63;;;20.90;99.90;;;;;;4399220;32;20192;-64
2021/09/12 09:54:54;;;;;;;60.40;55.00;;;21.10;99.90;;;;;;4403390;32;20472;-67
2021/09/12 09:57:21;;;;;;;59.50;54.73;;;21.00;99.90;;;;;;4401776;32;20197;-67
2021/09/12 09:59:48;;;;;;;61.07;56.13;;;20.80;99.90;;;;;;4403388;32;20152;-66
2021/09/12 10:02:25;;;;;;;60.17;55.17;;;20.70;99.90;;;;;;4403572;32;20441;-65
2021/09/12 10:04:55;;;;;;;63.43;57.97;;;20.80;99.90;;;;;;4406581;32;20159;-66
2021/09/12 10:07:22;;;;;;;70.07;64.40;;;20.90;99.90;;;;;;4395358;32;20160;-65
2021/09/12 10:09:50;;;;;;;63.57;58.17;;;21.10;99.90;;;;;;4402450;32;20163;-66
2021/09/12 10:12:17;;;;;;;66.97;61.00;;;21.40;99.90;;;;;;4404221;32;20168;-65
2021/09/12 10:14:52;;;;;;;68.17;62.53;;;21.70;99.90;;;;;;4405882;32;20568;-65
2021/09/12 10:17:27;;;;;;;65.73;60.13;;;21.80;99.90;;;;;;4404148;32;20167;-65
2021/09/12 10:20:08;;;;;;;64.80;59.10;;;21.90;99.90;;;;;;4395505;32;20245;-65
2021/09/12 10:23:05;;;;;;;61.10;56.50;;;22.10;99.90;;;;;;4400884;32;20202;-68
2021/09/12 10:25:34;;;;;;;68.17;62.90;;;22.40;99.90;;;;;;4405951;32;20609;-65
2021/09/12 10:28:12;;;;;;;65.27;60.17;;;22.50;99.90;;;;;;4392947;32;20188;-66
2021/09/12 10:30:42;;;;;;;67.60;62.47;;;22.30;99.90;;;;;;4404554;32;20182;-66
2021/09/12 10:33:22;;;;;;;68.03;62.13;;;22.00;99.90;;;;;;4404957;32;20160;-67
2021/09/12 10:36:03;;;;;;;63.07;57.83;;;22.00;99.90;;;;;;4408562;32;20205;-65
2021/09/12 10:38:34;;;;;;;65.13;59.70;;;22.50;99.90;;;;;;4401717;32;20552;-67
2021/09/12 10:41:18;;;;;;;62.63;57.77;;;22.60;99.90;;;;;;4404390;32;20284;-67
2021/09/12 10:43:53;;;;;;;64.23;59.50;;;22.80;99.90;;;;;;4402396;32;20203;-67
2021/09/12 10:46:39;;;;;;;57.87;53.60;;;22.90;99.90;;;;;;4396244;32;20266;-66
2021/09/12 10:49:15;;;;;;;60.40;55.60;;;23.00;99.90;;;;;;4398908;32;20291;-65
2021/09/12 10:51:50;;;;;;;59.23;54.47;;;23.10;99.90;;;;;;4392314;32;20575;-67
2021/09/12 10:54:17;;;;;;;63.93;59.03;;;23.40;99.90;;;;;;4397408;32;20160;-68
2021/09/12 10:56:44;;;;;;;55.37;50.83;;;23.80;99.90;;;;;;4406538;32;20160;-67
2021/09/12 10:59:15;;;;;;;56.37;51.63;;;23.90;99.90;;;;;;4405636;32;20203;-65
2021/09/12 11:01:45;;;;;;;55.87;51.57;;;23.80;99.90;;;;;;4401223;32;20164;-65
2021/09/12 11:04:15;;;;;;;56.20;51.73;;;23.50;99.90;;;;;;4406300;32;20632;-68
2021/09/12 11:06:44;;;;;;;62.00;57.37;;;23.30;99.90;;;;;;4405551;32;20174;-66
2021/09/12 11:09:20;;;;;;;56.77;52.53;;;23.20;99.90;;;;;;4403476;32;20198;-69
2021/09/12 11:11:47;;;;;;;59.07;54.47;;;23.10;99.90;;;;;;4415915;32;20226;-66
2021/09/12 11:14:18;;;;;;;57.67;53.40;;;23.10;99.90;;;;;;4402066;32;20199;-66
2021/09/12 11:16:45;;;;;;;58.53;54.35;;;23.20;99.90;;;;;;4393854;32;20172;-66
2021/09/12 11:19:17;;;;;;;57.50;53.03;;;23.30;99.90;;;;;;4401377;32;20183;-67
2021/09/12 11:21:45;;;;;;;56.33;51.67;;;23.80;99.90;;;;;;4395577;32;20212;-67
2021/09/12 11:24:17;;;;;;;57.20;52.73;;;24.20;99.90;;;;;;4393996;32;20662;-67
2021/09/12 11:26:49;;;;;;;51.70;47.67;;;24.40;99.90;;;;;;4397050;32;20152;-66
2021/09/12 11:29:27;;;;;;;57.17;52.85;;;24.50;99.90;;;;;;4398898;32;20155;-66
2021/09/12 11:32:04;;;;;;;50.47;46.37;;;24.50;99.90;;;;;;4386528;32;20206;-67
2021/09/12 11:34:34;;;;;;;54.47;50.35;;;24.30;99.90;;;;;;4415506;32;20198;-66
2021/09/12 11:37:02;;;;;;;54.78;50.08;;;24.00;99.90;;;;;;4410815;32;20197;-68
2021/09/12 11:39:31;;;;;;;58.20;53.25;;;23.50;99.90;;;;;;4410357;32;20178;-66
2021/09/12 11:42:00;;;;;;;60.97;55.80;;;22.90;99.90;;;;;;4392249;32;20160;-67
2021/09/12 11:44:31;;;;;;;58.83;54.30;;;22.50;99.90;;;;;;4402719;32;20156;-69
2021/09/12 11:47:01;;;;;;;63.63;58.77;;;22.10;99.90;;;;;;4407002;32;20637;-67
2021/09/12 11:49:28;;;;;;;65.28;59.83;;;21.80;99.90;;;;;;4406249;32;20211;-69
2021/09/12 11:51:57;;;;;;;67.77;62.63;;;21.50;99.90;;;;;;4361716;32;1735614;-67
2021/09/12 11:54:26;;;;;;;67.30;62.40;;;21.30;99.90;;;;;;4394214;32;20559;-67
2021/09/12 11:57:01;;;;;;;65.97;61.00;;;21.30;99.90;;;;;;4414745;32;20204;-71
2021/09/12 11:59:37;;;;;;;64.30;59.67;;;21.40;99.90;;;;;;4399321;32;20185;-68
2021/09/12 12:02:04;;;;;;;71.83;66.50;;;21.40;99.90;;;;;;4408183;32;20170;-68
2021/09/12 12:04:48;;;;;;;73.10;67.50;;;21.30;99.90;;;;;;4406699;32;20153;-67
2021/09/12 12:07:19;;;;;;;71.43;66.20;;;21.30;99.90;;;;;;4421482;32;20437;-68
2021/09/12 12:09:50;;;;;;;67.50;62.77;;;21.50;99.90;;;;;;4421190;32;20487;-65
2021/09/12 12:12:22;;;;;;;73.27;67.60;;;21.70;99.90;;;;;;4422427;32;20182;-67
2021/09/12 12:14:58;;;;;;;72.60;67.27;;;22.00;99.90;;;;;;4422980;32;20148;-66
2021/09/12 12:17:27;;;;;;;63.87;59.23;;;22.20;99.90;;;;;;4422706;32;20202;-67
2021/09/12 12:20:03;;;;;;;63.70;58.90;;;22.50;99.90;;;;;;4422928;32;20151;-67
2021/09/12 12:22:41;;;;;;;74.60;68.73;;;22.80;99.90;;;;;;4422353;32;20559;-67
2021/09/12 12:25:08;;;;;;;70.40;64.60;;;23.00;99.90;;;;;;4419355;32;20156;-65
2021/09/12 12:27:44;;;;;;;62.77;58.00;;;23.00;99.90;;;;;;4420324;32;20156;-66
2021/09/12 12:30:13;;;;;;;62.27;57.43;;;22.80;99.90;;;;;;4422314;32;20320;-66
2021/09/12 12:32:43;;;;;;;66.67;61.70;;;22.50;99.90;;;;;;4420943;32;20148;-69
2021/09/12 12:35:19;;;;;;;60.47;55.70;;;22.20;99.90;;;;;;4420644;32;20214;-69
2021/09/12 12:37:51;;;;;;;67.87;63.00;;;21.90;99.90;;;;;;4420277;32;20193;-66
2021/09/12 12:40:20;;;;;;;68.00;62.87;;;21.80;99.90;;;;;;4421394;32;20147;-66
2021/09/12 12:42:50;;;;;;;69.20;64.00;;;21.70;99.90;;;;;;4420847;32;20166;-70
2021/09/12 12:45:20;;;;;;;70.97;65.80;;;21.50;99.90;;;;;;4420492;32;20148;-69
2021/09/12 12:47:54;;;;;;;69.00;63.87;;;21.30;99.90;;;;;;4420582;32;20172;-68
2021/09/12 12:50:31;;;;;;;69.67;64.43;;;21.30;99.90;;;;;;4420553;32;20167;-67
2021/09/12 12:53:21;;;;;;;61.43;56.83;;;21.30;99.90;;;;;;4420616;32;20151;-68
2021/09/12 12:55:52;;;;;;;62.13;57.80;;;21.90;99.90;;;;;;4407090;32;20144;-67